Time,TemperatureF,DewpointF,PressureIn,WindDirection,WindDirectionDegrees,WindSpeedMPH,WindSpeedGustMPH,Humidity,HourlyPrecipIn,Conditions,Clouds,dailyrainin,SoftwareType,DateUTC
2013-01-30 00:00:00,58.3,48.6,29.49,SSE,158,0.7,0.7,70,0.00,,,0.00,WUHU216HW,2013-01-30 05:00:00,
2013-01-30 00:01:00,58.3,48.6,29.49,SSE,158,0.7,0.7,70,0.00,,,0.00,WUHU216HW,2013-01-30 05:01:00,
2013-01-30 00:03:00,58.3,48.6,29.49,SSE,158,0.7,0.7,70,0.00,,,0.00,WUHU216HW,2013-01-30 05:03:00,
2013-01-30 00:08:00,58.3,48.6,29.49,SSE,158,0.7,0.7,70,0.00,,,0.00,WUHU216HW,2013-01-30 05:08:00,
2013-01-30 00:30:00,57.4,48.1,29.48,SE,135,0.2,0.2,71,0.00,,,0.00,WUHU216HW,2013-01-30 05:30:00,
2013-01-30 00:35:00,57.4,48.1,29.48,SE,135,0.2,0.2,71,0.00,,,0.00,WUHU216HW,2013-01-30 05:35:00,
2013-01-30 01:00:00,56.0,47.4,29.46,SSW,203,0.0,0.0,73,0.00,,,0.00,WUHU216HW,2013-01-30 06:00:00,
2013-01-30 01:05:00,56.0,47.4,29.46,SSW,203,0.0,0.0,73,0.00,,,0.00,WUHU216HW,2013-01-30 06:05:00,
2013-01-30 01:30:00,56.2,47.6,29.45,SSW,203,0.4,0.4,73,0.00,,,0.00,WUHU216HW,2013-01-30 06:30:00,
2013-01-30 01:35:00,56.2,47.6,29.45,SSW,203,0.4,0.4,73,0.00,,,0.00,WUHU216HW,2013-01-30 06:35:00,
2013-01-30 02:00:00,56.2,48.0,29.44,SSW,203,0.0,0.0,74,0.00,,,0.00,WUHU216HW,2013-01-30 07:00:00,
2013-01-30 02:05:00,56.2,48.0,29.44,SSW,203,0.0,0.0,74,0.00,,,0.00,WUHU216HW,2013-01-30 07:05:00,
2013-01-30 02:30:00,54.5,47.1,29.42,SSE,158,1.1,1.1,76,0.00,,,0.00,WUHU216HW,2013-01-30 07:30:00,
2013-01-30 02:35:00,54.5,47.1,29.42,SSE,158,1.1,1.1,76,0.00,,,0.00,WUHU216HW,2013-01-30 07:35:00,
2013-01-30 03:00:00,53.6,46.3,29.41,WSW,248,0.4,0.4,76,0.00,,,0.00,WUHU216HW,2013-01-30 08:00:00,
2013-01-30 03:05:00,53.6,46.3,29.41,WSW,248,0.4,0.4,76,0.00,,,0.00,WUHU216HW,2013-01-30 08:05:00,
2013-01-30 03:30:00,52.2,45.5,29.40,West,270,0.7,0.7,78,0.00,,,0.00,WUHU216HW,2013-01-30 08:30:00,
2013-01-30 03:35:00,52.2,45.5,29.40,West,270,0.7,0.7,78,0.00,,,0.00,WUHU216HW,2013-01-30 08:35:00,
2013-01-30 04:00:00,49.9,43.2,29.39,SSE,158,0.4,0.4,78,0.00,,,0.00,WUHU216HW,2013-01-30 09:00:00,
2013-01-30 04:05:00,49.9,43.2,29.39,SSE,158,0.4,0.4,78,0.00,,,0.00,WUHU216HW,2013-01-30 09:05:00,
2013-01-30 04:30:00,48.2,42.3,29.37,SSE,158,0.0,0.0,80,0.00,,,0.00,WUHU216HW,2013-01-30 09:30:00,
2013-01-30 04:35:00,48.2,42.3,29.37,SSE,158,0.0,0.0,80,0.00,,,0.00,WUHU216HW,2013-01-30 09:35:00,
2013-01-30 05:00:00,48.2,42.7,29.36,WNW,293,0.0,0.0,81,0.00,,,0.00,WUHU216HW,2013-01-30 10:00:00,
2013-01-30 05:05:00,48.2,42.7,29.36,WNW,293,0.0,0.0,81,0.00,,,0.00,WUHU216HW,2013-01-30 10:05:00,
2013-01-30 05:30:00,47.5,41.9,29.34,SW,225,0.0,0.0,81,0.00,,,0.00,WUHU216HW,2013-01-30 10:30:00,
2013-01-30 05:35:00,47.5,41.9,29.34,SW,225,0.0,0.0,81,0.00,,,0.00,WUHU216HW,2013-01-30 10:35:00,
2013-01-30 05:40:00,47.5,41.9,29.34,SW,225,0.0,0.0,81,0.00,,,0.00,WUHU216HW,2013-01-30 10:40:00,
2013-01-30 06:00:00,46.4,41.3,29.32,SW,225,0.4,0.4,82,0.00,,,0.00,WUHU216HW,2013-01-30 11:00:00,
2013-01-30 06:05:00,46.4,41.3,29.32,SW,225,0.4,0.4,82,0.00,,,0.00,WUHU216HW,2013-01-30 11:05:00,
2013-01-30 06:30:00,47.2,42.9,29.33,WNW,293,0.9,0.9,85,0.00,,,0.00,WUHU216HW,2013-01-30 11:30:00,
2013-01-30 06:35:00,47.2,42.9,29.33,WNW,293,0.9,0.9,85,0.00,,,0.00,WUHU216HW,2013-01-30 11:35:00,
2013-01-30 07:00:00,47.2,42.9,29.32,North,0,2.2,2.2,85,0.00,,,0.00,WUHU216HW,2013-01-30 12:00:00,
2013-01-30 07:05:00,47.2,42.9,29.32,North,0,2.2,2.2,85,0.00,,,0.00,WUHU216HW,2013-01-30 12:05:00,
2013-01-30 07:30:00,46.8,42.6,29.30,SSW,203,0.0,0.0,85,0.00,,,0.00,WUHU216HW,2013-01-30 12:30:00,
2013-01-30 07:35:00,46.8,42.6,29.30,SSW,203,0.0,0.0,85,0.00,,,0.00,WUHU216HW,2013-01-30 12:35:00,
2013-01-30 08:00:00,52.2,49.9,29.29,SSW,203,2.2,2.2,92,0.00,,,0.00,WUHU216HW,2013-01-30 13:00:00,
2013-01-30 08:05:00,52.2,49.9,29.29,SSW,203,2.2,2.2,92,0.00,,,0.00,WUHU216HW,2013-01-30 13:05:00,
2013-01-30 08:30:00,58.9,55.0,29.27,SSE,158,4.0,4.0,87,0.00,,,0.00,WUHU216HW,2013-01-30 13:30:00,
2013-01-30 08:35:00,58.9,55.0,29.27,SSE,158,4.0,4.0,87,0.00,,,0.00,WUHU216HW,2013-01-30 13:35:00,
2013-01-30 09:00:00,61.9,56.1,29.26,SW,225,5.4,5.4,81,0.00,,,0.00,WUHU216HW,2013-01-30 14:00:00,
2013-01-30 09:05:00,61.9,56.1,29.26,SW,225,5.4,5.4,81,0.00,,,0.00,WUHU216HW,2013-01-30 14:05:00,
2013-01-30 09:30:00,63.4,56.7,29.24,SE,135,4.0,4.0,79,0.00,,,0.00,WUHU216HW,2013-01-30 14:30:00,
2013-01-30 09:35:00,63.4,56.7,29.24,SE,135,4.0,4.0,79,0.00,,,0.00,WUHU216HW,2013-01-30 14:35:00,
2013-01-30 10:00:00,64.4,57.8,29.23,SSE,158,6.5,6.5,79,0.00,,,0.00,WUHU216HW,2013-01-30 15:00:00,
2013-01-30 10:05:00,64.4,57.8,29.23,SSE,158,6.5,6.5,79,0.00,,,0.00,WUHU216HW,2013-01-30 15:05:00,
2013-01-30 10:30:00,64.8,58.2,29.24,ESE,113,4.5,4.5,79,0.00,,,0.00,WUHU216HW,2013-01-30 15:30:00,
2013-01-30 10:35:00,64.8,58.2,29.24,ESE,113,4.5,4.5,79,0.00,,,0.00,WUHU216HW,2013-01-30 15:35:00,
2013-01-30 11:00:00,64.4,58.1,29.22,SSE,158,8.5,8.5,80,0.00,,,0.00,WUHU216HW,2013-01-30 16:00:00,
2013-01-30 11:05:00,64.4,58.1,29.22,SSE,158,8.5,8.5,80,0.00,,,0.00,WUHU216HW,2013-01-30 16:05:00,
2013-01-30 11:30:00,65.2,58.5,29.19,South,180,4.0,4.0,79,0.00,,,0.00,WUHU216HW,2013-01-30 16:30:00,
2013-01-30 11:35:00,65.2,58.5,29.19,South,180,4.0,4.0,79,0.00,,,0.00,WUHU216HW,2013-01-30 16:35:00,
2013-01-30 12:00:00,65.7,59.1,29.15,SSW,203,6.0,6.0,79,0.00,,,0.00,WUHU216HW,2013-01-30 17:00:00,
2013-01-30 12:05:00,65.7,59.1,29.15,SSW,203,6.0,6.0,79,0.00,,,0.00,WUHU216HW,2013-01-30 17:05:00,
2013-01-30 12:30:00,66.8,59.3,29.14,SSW,203,5.4,5.4,77,0.00,,,0.00,WUHU216HW,2013-01-30 17:30:00,
2013-01-30 12:35:00,66.8,59.3,29.14,SSW,203,5.4,5.4,77,0.00,,,0.00,WUHU216HW,2013-01-30 17:35:00,
2013-01-30 13:00:00,68.8,60.1,29.13,SSW,203,7.4,7.4,74,0.00,,,0.00,WUHU216HW,2013-01-30 18:00:00,
2013-01-30 13:05:00,68.8,60.1,29.13,SSW,203,7.4,7.4,74,0.00,,,0.00,WUHU216HW,2013-01-30 18:05:00,
2013-01-30 13:30:00,70.2,60.3,29.12,WSW,248,4.3,4.3,71,0.00,,,0.00,WUHU216HW,2013-01-30 18:30:00,
2013-01-30 13:35:00,70.2,60.3,29.12,WSW,248,4.3,4.3,71,0.00,,,0.00,WUHU216HW,2013-01-30 18:35:00,
2013-01-30 14:00:00,61.6,55.0,29.18,NW,315,2.5,2.5,79,0.00,,,0.00,WUHU216HW,2013-01-30 19:00:00,
2013-01-30 14:04:00,61.6,55.0,29.18,NW,315,2.5,2.5,79,0.00,,,0.00,WUHU216HW,2013-01-30 19:04:00,
2013-01-30 14:30:00,60.1,55.6,29.19,South,180,1.1,1.1,85,0.00,,,0.00,WUHU216HW,2013-01-30 19:30:00,
2013-01-30 14:35:00,60.1,55.6,29.19,South,180,1.1,1.1,85,0.00,,,0.00,WUHU216HW,2013-01-30 19:35:00,
2013-01-30 15:00:00,59.4,55.5,29.18,SE,135,1.1,1.1,87,0.00,,,0.00,WUHU216HW,2013-01-30 20:00:00,
2013-01-30 15:04:00,59.4,55.5,29.18,SE,135,1.1,1.1,87,0.00,,,0.00,WUHU216HW,2013-01-30 20:04:00,
2013-01-30 15:30:00,59.0,55.5,29.16,SE,135,1.6,1.6,88,0.00,,,0.00,WUHU216HW,2013-01-30 20:30:00,
2013-01-30 15:35:00,59.0,55.5,29.16,SE,135,1.6,1.6,88,0.00,,,0.00,WUHU216HW,2013-01-30 20:35:00,
2013-01-30 16:00:00,58.7,55.4,29.14,SE,135,1.8,1.8,89,0.00,,,0.00,WUHU216HW,2013-01-30 21:00:00,
2013-01-30 16:04:00,58.7,55.4,29.14,SE,135,1.8,1.8,89,0.00,,,0.00,WUHU216HW,2013-01-30 21:04:00,
2013-01-30 16:30:00,58.3,55.4,29.13,SSE,158,1.3,1.3,90,0.00,,,0.00,WUHU216HW,2013-01-30 21:30:00,
2013-01-30 16:35:00,58.3,55.4,29.13,SSE,158,1.3,1.3,90,0.00,,,0.00,WUHU216HW,2013-01-30 21:35:00,
2013-01-30 17:00:00,58.1,54.9,29.13,SE,135,2.2,2.2,89,0.00,,,0.00,WUHU216HW,2013-01-30 22:00:00,
2013-01-30 17:05:00,58.1,54.9,29.13,SE,135,2.2,2.2,89,0.00,,,0.00,WUHU216HW,2013-01-30 22:05:00,
2013-01-30 17:30:00,57.6,54.4,29.11,SE,135,1.3,1.3,89,0.00,,,0.00,WUHU216HW,2013-01-30 22:30:00,
2013-01-30 17:35:00,57.6,54.4,29.11,SE,135,1.3,1.3,89,0.00,,,0.00,WUHU216HW,2013-01-30 22:35:00,
2013-01-30 18:00:00,57.2,54.4,29.10,ESE,113,0.4,0.4,90,0.00,,,0.00,WUHU216HW,2013-01-30 23:00:00,
2013-01-30 18:05:00,57.2,54.4,29.10,ESE,113,0.4,0.4,90,0.00,,,0.00,WUHU216HW,2013-01-30 23:05:00,
2013-01-30 18:30:00,56.9,53.6,29.09,SSE,158,0.0,0.0,89,0.00,,,0.00,WUHU216HW,2013-01-30 23:30:00,
2013-01-30 18:35:00,56.9,53.6,29.09,SSE,158,0.0,0.0,89,0.00,,,0.00,WUHU216HW,2013-01-30 23:35:00,
2013-01-30 19:00:00,56.3,53.7,29.06,ESE,113,0.2,0.2,91,0.00,,,0.00,WUHU216HW,2013-01-31 00:00:00,
2013-01-30 19:04:00,56.3,53.7,29.06,ESE,113,0.2,0.2,91,0.00,,,0.00,WUHU216HW,2013-01-31 00:04:00,
2013-01-30 19:30:00,55.8,52.9,29.05,SSW,203,1.3,1.3,90,0.00,,,0.00,WUHU216HW,2013-01-31 00:30:00,
2013-01-30 19:35:00,55.8,52.9,29.05,SSW,203,1.3,1.3,90,0.00,,,0.00,WUHU216HW,2013-01-31 00:35:00,
2013-01-30 20:00:00,55.4,52.6,29.02,South,180,0.4,0.4,90,0.00,,,0.00,WUHU216HW,2013-01-31 01:00:00,
2013-01-30 20:05:00,55.4,52.6,29.02,South,180,0.4,0.4,90,0.00,,,0.00,WUHU216HW,2013-01-31 01:05:00,
2013-01-30 20:30:00,55.1,52.2,29.01,SSW,203,0.0,0.0,90,0.00,,,0.00,WUHU216HW,2013-01-31 01:30:00,
2013-01-30 20:35:00,55.1,52.2,29.01,SSW,203,0.0,0.0,90,0.00,,,0.00,WUHU216HW,2013-01-31 01:35:00,
2013-01-30 21:00:00,54.9,52.0,28.98,SSE,158,0.7,0.7,90,0.00,,,0.00,WUHU216HW,2013-01-31 02:00:00,
2013-01-30 21:04:00,54.9,52.0,28.98,SSE,158,0.7,0.7,90,0.00,,,0.00,WUHU216HW,2013-01-31 02:04:00,
2013-01-30 21:30:00,54.7,51.8,28.94,SSW,203,0.4,0.4,90,0.00,,,0.00,WUHU216HW,2013-01-31 02:30:00,
2013-01-30 21:35:00,54.7,51.8,28.94,SSW,203,0.4,0.4,90,0.00,,,0.00,WUHU216HW,2013-01-31 02:35:00,
2013-01-30 21:40:00,54.7,51.8,28.94,SSW,203,0.4,0.4,90,0.00,,,0.00,WUHU216HW,2013-01-31 02:40:00,
2013-01-30 22:00:00,54.5,51.9,28.91,SE,135,0.0,0.0,91,0.00,,,0.00,WUHU216HW,2013-01-31 03:00:00,
2013-01-30 22:05:00,54.5,51.9,28.91,SE,135,0.0,0.0,91,0.00,,,0.00,WUHU216HW,2013-01-31 03:05:00,
2013-01-30 22:30:00,54.7,52.1,28.89,SSE,158,1.3,1.3,91,0.00,,,0.00,WUHU216HW,2013-01-31 03:30:00,
2013-01-30 22:35:00,54.7,52.1,28.89,SSE,158,1.3,1.3,91,0.00,,,0.00,WUHU216HW,2013-01-31 03:35:00,
2013-01-30 23:00:00,54.7,52.4,28.86,SSE,158,1.1,1.1,92,0.00,,,0.00,WUHU216HW,2013-01-31 04:00:00,
2013-01-30 23:05:00,54.7,52.4,28.86,SSE,158,1.1,1.1,92,0.00,,,0.00,WUHU216HW,2013-01-31 04:05:00,
2013-01-30 23:30:00,54.7,52.1,28.83,South,180,0.0,0.0,91,0.00,,,0.00,WUHU216HW,2013-01-31 04:30:00,
2013-01-30 23:35:00,54.7,52.1,28.83,South,180,0.0,0.0,91,0.00,,,0.00,WUHU216HW,2013-01-31 04:35:00,